Nearby METAR Reports

 

NZCH - Christchurch Int, New Zealand
Distance from station: W 10km
Updated: 21 Sep 2020 02:30
Clear
Clear
 Wind from WNW
Wind: WNW 6 km/h
Temperature: 4°C
Dew Point: 3°C
Humidity: 93%
Barometer: 1023 hPa
Clouds: Clear
Visibility: 7 km
2020/09/20 14:30 NZCH 201430Z AUTO 30003KT 7000 NCD 04/03 Q1023 BECMG 0400 FG